createdAt,value
2022-09-24T00:02:11.639Z,100143.06
2022-09-24T00:04:38.271Z,100147.09
2022-09-24T00:07:05.109Z,100139.38
2022-09-24T00:09:31.679Z,100140.41
2022-09-24T00:11:58.464Z,100135.31
2022-09-24T00:14:25.020Z,100140.06
2022-09-24T00:16:51.573Z,100141.75
2022-09-24T00:19:18.107Z,100134.06
2022-09-24T00:21:44.958Z,100135.69
2022-09-24T00:24:36.483Z,100142.13
2022-09-24T00:27:04.647Z,100131.19
2022-09-24T00:29:34.427Z,100126.03
2022-09-24T00:32:01.895Z,100130.31
2022-09-24T00:34:28.626Z,100123.56
2022-09-24T00:36:55.181Z,100130.00
2022-09-24T00:39:21.904Z,100119.84
2022-09-24T00:41:49.109Z,100135.75
2022-09-24T00:44:48.179Z,100131.41
2022-09-24T00:47:31.762Z,100125.94
2022-09-24T00:50:08.120Z,100121.41
2022-09-24T00:52:40.869Z,100121.41
2022-09-24T00:55:08.951Z,100121.56
2022-09-24T00:57:37.599Z,100116.44
2022-09-24T01:00:07.077Z,100104.38
2022-09-24T01:02:39.132Z,100109.00
2022-09-24T01:05:05.883Z,100109.06
2022-09-24T01:07:32.576Z,100094.03
2022-09-24T01:09:59.353Z,100094.88
2022-09-24T01:12:53.129Z,100088.88
2022-09-24T01:15:34.750Z,100097.78
2022-09-24T01:18:22.242Z,100088.38
2022-09-24T01:21:14.660Z,100089.41
2022-09-24T01:24:05.873Z,100092.38
2022-09-24T01:26:56.623Z,100077.84
2022-09-24T01:29:25.861Z,100079.66
2022-09-24T01:32:05.939Z,100062.88
2022-09-24T01:34:43.531Z,100073.13
2022-09-24T01:37:14.099Z,100069.88
2022-09-24T01:39:42.046Z,100073.31
2022-09-24T01:42:11.057Z,100056.63
2022-09-24T01:44:38.890Z,100064.75
2022-09-24T01:47:08.144Z,100065.06
2022-09-24T01:49:34.694Z,100047.44
2022-09-24T01:52:06.976Z,100043.09
2022-09-24T01:54:41.375Z,100041.50
2022-09-24T01:57:12.004Z,100049.75
2022-09-24T01:59:40.641Z,100054.50
2022-09-24T02:02:11.554Z,100036.06
2022-09-24T02:04:44.192Z,100035.19
2022-09-24T02:07:16.590Z,100044.75
2022-09-24T02:09:44.114Z,100028.41
2022-09-24T02:12:14.789Z,100037.22
2022-09-24T02:14:44.393Z,100057.38
2022-09-24T02:17:12.318Z,100055.91
2022-09-24T02:19:41.321Z,100036.53
2022-09-24T02:22:10.660Z,100036.38
2022-09-24T02:24:45.539Z,100043.16
2022-09-24T02:27:12.694Z,100043.25
2022-09-24T02:29:39.585Z,100043.63
2022-09-24T02:32:09.363Z,100043.88
2022-09-24T02:34:41.362Z,100037.09
2022-09-24T02:37:10.919Z,100004.63
2022-09-24T02:39:37.611Z,100034.91
2022-09-24T02:42:06.506Z,100012.03
2022-09-24T02:44:34.253Z,100009.06
2022-09-24T02:47:01.032Z,100038.50
2022-09-24T02:49:27.650Z,100041.34
2022-09-24T02:51:54.402Z,100037.94
2022-09-24T02:54:22.114Z,100038.56
2022-09-24T02:56:48.927Z,100053.25
2022-09-24T02:59:15.446Z,100039.50
2022-09-24T03:01:42.116Z,100024.84
2022-09-24T03:04:09.221Z,100054.81
2022-09-24T03:06:36.857Z,100050.16
2022-09-24T03:09:04.243Z,100059.09
2022-09-24T03:11:32.076Z,100057.66
2022-09-24T03:13:59.155Z,100053.09
2022-09-24T03:16:26.052Z,100032.09
2022-09-24T03:18:52.610Z,100048.41
2022-09-24T03:21:22.225Z,100046.06
2022-09-24T03:23:48.790Z,100046.31
2022-09-24T03:26:17.530Z,100050.97
2022-09-24T03:28:44.336Z,100026.97
2022-09-24T03:31:11.219Z,100052.81
2022-09-24T03:33:39.503Z,100056.47
2022-09-24T03:36:10.211Z,100036.69
2022-09-24T03:38:37.270Z,100061.75
2022-09-24T03:41:04.826Z,100053.66
2022-09-24T03:43:31.797Z,100035.63
2022-09-24T03:45:58.304Z,100035.09
2022-09-24T03:48:26.130Z,100045.06
2022-09-24T03:50:53.371Z,100037.97
2022-09-24T03:53:20.521Z,100027.19
2022-09-24T03:55:49.402Z,100024.63
2022-09-24T03:58:16.221Z,100018.75
2022-09-24T04:00:42.873Z,100022.34
2022-09-24T04:03:09.657Z,100015.44
2022-09-24T04:05:36.295Z,100016.44
2022-09-24T04:08:03.173Z,100015.59
2022-09-24T04:10:29.980Z,100013.09
2022-09-24T04:12:57.019Z,100014.09
2022-09-24T04:15:23.630Z,99992.75
2022-09-24T04:17:59.625Z,100001.94
2022-09-24T04:20:28.779Z,99974.47
2022-09-24T04:22:58.028Z,100000.72
2022-09-24T04:25:26.281Z,100000.44
2022-09-24T04:27:57.619Z,99986.44
2022-09-24T04:30:24.984Z,100005.66
2022-09-24T04:32:51.819Z,99978.41
2022-09-24T04:35:23.180Z,100000.00
2022-09-24T04:37:50.312Z,99994.88
2022-09-24T04:40:17.321Z,100000.25
2022-09-24T04:42:46.349Z,99992.97
2022-09-24T04:45:16.414Z,99997.25
2022-09-24T04:47:43.240Z,99998.50
2022-09-24T04:50:11.538Z,99975.41
2022-09-24T04:52:38.900Z,99982.28
2022-09-24T04:55:06.227Z,100006.06
2022-09-24T04:57:35.025Z,100010.47
2022-09-24T05:00:06.377Z,99999.28
2022-09-24T05:02:33.438Z,99986.44
2022-09-24T05:05:00.163Z,99984.31
2022-09-24T05:07:26.996Z,100009.22
2022-09-24T05:09:53.533Z,100011.41
2022-09-24T05:12:21.270Z,100007.41
2022-09-24T05:14:48.766Z,100008.00
2022-09-24T05:17:15.577Z,100017.81
2022-09-24T05:19:42.202Z,100006.13
2022-09-24T05:22:08.761Z,100010.63
2022-09-24T05:24:35.318Z,100022.22
2022-09-24T05:27:10.830Z,100020.56
2022-09-24T05:29:43.426Z,100009.19
2022-09-24T05:32:15.284Z,100006.31
2022-09-24T05:34:43.122Z,100013.16
2022-09-24T05:37:10.281Z,100012.69
2022-09-24T05:39:36.981Z,100010.25
2022-09-24T05:42:04.333Z,100021.41
2022-09-24T05:44:34.043Z,100028.94
2022-09-24T05:47:00.639Z,100027.00
2022-09-24T05:49:27.297Z,100027.47
2022-09-24T05:51:53.795Z,100028.19
2022-09-24T05:54:20.339Z,100021.75
2022-09-24T05:56:47.337Z,100034.56
2022-09-24T05:59:14.179Z,100004.53
2022-09-24T06:01:40.880Z,100032.00
2022-09-24T06:04:08.974Z,100045.88
2022-09-24T06:06:36.413Z,100019.09
2022-09-24T06:09:03.513Z,100046.16
2022-09-24T06:11:40.132Z,100045.09
2022-09-24T06:14:08.715Z,100048.25
2022-09-24T06:16:35.681Z,100045.28
2022-09-24T06:19:02.483Z,100038.03
2022-09-24T06:21:29.096Z,100031.75
2022-09-24T06:23:55.606Z,100039.19
2022-09-24T06:26:22.320Z,100032.97
2022-09-24T06:28:49.131Z,100052.72
2022-09-24T06:31:15.794Z,100058.72
2022-09-24T06:33:42.577Z,100023.38
2022-09-24T06:36:09.436Z,100051.47
2022-09-24T06:38:36.566Z,100045.25
2022-09-24T06:41:05.329Z,100046.78
2022-09-24T06:43:32.647Z,100044.59
2022-09-24T06:46:00.343Z,100046.84
2022-09-24T06:48:28.000Z,100042.81
2022-09-24T06:50:57.701Z,100034.09
2022-09-24T06:53:24.239Z,100056.03
2022-09-24T06:55:51.120Z,100058.25
2022-09-24T06:58:23.748Z,100056.03
2022-09-24T07:00:53.072Z,100050.22
2022-09-24T07:03:20.944Z,100029.00
2022-09-24T07:05:48.244Z,100048.69
2022-09-24T07:08:14.824Z,100041.06
2022-09-24T07:10:46.149Z,100037.28
2022-09-24T07:13:13.776Z,100036.00
2022-09-24T07:15:41.862Z,100042.69
2022-09-24T07:18:09.189Z,100060.16
2022-09-24T07:20:37.055Z,100041.16
2022-09-24T07:23:09.192Z,100046.28
2022-09-24T07:25:39.383Z,100028.72
2022-09-24T07:28:08.834Z,100057.97
2022-09-24T07:30:36.476Z,100060.59
2022-09-24T07:33:03.930Z,100062.75
2022-09-24T07:35:31.513Z,100042.66
2022-09-24T07:38:00.407Z,100064.88
2022-09-24T07:40:28.322Z,100068.28
2022-09-24T07:42:55.344Z,100071.53
2022-09-24T07:45:32.438Z,100052.91
2022-09-24T07:47:59.972Z,100063.00
2022-09-24T07:50:28.335Z,100076.28
2022-09-24T07:52:55.366Z,100082.78
2022-09-24T07:55:22.743Z,100068.53
2022-09-24T07:57:51.883Z,100069.63
2022-09-24T08:00:20.095Z,100067.63
2022-09-24T08:02:47.782Z,100053.84
2022-09-24T08:05:16.644Z,100065.25
2022-09-24T08:07:43.222Z,100064.22
2022-09-24T08:10:10.026Z,100068.69
2022-09-24T08:12:36.609Z,100040.53
2022-09-24T08:15:03.371Z,100065.81
2022-09-24T08:17:31.179Z,100053.31
2022-09-24T08:19:57.782Z,100065.78
2022-09-24T08:22:25.051Z,100049.81
2022-09-24T08:24:51.747Z,100065.38
2022-09-24T08:27:20.323Z,100061.00
2022-09-24T08:29:47.102Z,100078.16
2022-09-24T08:32:13.958Z,100080.81
2022-09-24T08:34:40.837Z,100076.97
2022-09-24T08:37:08.293Z,100081.16
2022-09-24T08:39:35.385Z,100076.13
2022-09-24T08:42:04.656Z,100086.03
2022-09-24T08:44:58.099Z,100081.06
2022-09-24T08:47:36.493Z,100086.34
2022-09-24T08:50:13.501Z,100083.81
2022-09-24T08:52:49.836Z,100080.50
2022-09-24T08:55:27.936Z,100080.59
2022-09-24T08:58:00.852Z,100072.72
2022-09-24T09:00:31.892Z,100076.78
2022-09-24T09:03:24.276Z,100067.69
2022-09-24T09:05:59.354Z,100071.75
2022-09-24T09:08:54.923Z,100042.44
2022-09-24T09:11:24.742Z,100061.50
2022-09-24T09:14:26.932Z,100056.31
2022-09-24T09:17:01.273Z,100059.38
2022-09-24T09:19:33.775Z,100062.69
2022-09-24T09:22:10.427Z,100063.28
2022-09-24T09:24:52.520Z,100070.50
2022-09-24T09:27:20.460Z,100066.22
2022-09-24T09:30:03.112Z,100065.91
2022-09-24T09:32:57.279Z,100077.53
2022-09-24T09:35:39.002Z,100074.03
2022-09-24T09:38:17.320Z,100079.88
2022-09-24T09:41:06.571Z,100073.41
2022-09-24T09:43:33.357Z,100065.00
2022-09-24T09:46:12.677Z,100059.50
2022-09-24T09:48:48.606Z,100069.66
2022-09-24T09:51:22.625Z,100074.16
2022-09-24T09:53:57.901Z,100075.50
2022-09-24T09:56:30.562Z,100075.47
2022-09-24T09:59:08.247Z,100076.94
2022-09-24T10:01:37.844Z,100074.19
2022-09-24T10:04:05.292Z,100069.06
2022-09-24T10:06:34.447Z,100065.88
2022-09-24T10:09:16.639Z,100064.81
2022-09-24T10:11:43.298Z,100065.78
2022-09-24T10:14:15.570Z,100061.88
2022-09-24T10:16:54.042Z,100055.66
2022-09-24T10:19:26.777Z,100054.72
2022-09-24T10:21:57.345Z,100054.97
2022-09-24T10:24:25.305Z,100062.22
2022-09-24T10:26:52.878Z,100054.94
2022-09-24T10:29:52.709Z,100049.78
2022-09-24T10:32:23.040Z,100047.13
2022-09-24T10:34:57.866Z,100039.03
2022-09-24T10:37:24.702Z,100052.63
2022-09-24T10:40:11.272Z,100047.63
2022-09-24T10:42:38.389Z,100052.25
2022-09-24T10:45:13.757Z,100055.69
2022-09-24T10:48:10.940Z,100062.84
2022-09-24T10:51:15.223Z,100051.16
2022-09-24T10:53:47.674Z,100052.00
2022-09-24T10:56:34.028Z,100053.38
2022-09-24T10:59:13.468Z,100049.72
2022-09-24T11:01:53.154Z,100042.91
2022-09-24T11:04:42.844Z,100042.19
2022-09-24T11:07:56.510Z,100039.97
2022-09-24T11:10:43.488Z,100035.84
2022-09-24T11:13:18.247Z,100037.06
2022-09-24T11:16:00.000Z,100039.84
2022-09-24T11:18:47.704Z,100039.47
2022-09-24T11:21:35.522Z,100017.91
2022-09-24T11:24:38.010Z,100012.59
2022-09-24T11:27:28.370Z,100016.50
2022-09-24T11:30:07.092Z,100014.72
2022-09-24T11:32:55.434Z,100016.19
2022-09-24T11:36:07.171Z,100012.66
2022-09-24T11:39:04.330Z,100016.56
2022-09-24T11:42:08.450Z,100007.22
2022-09-24T11:44:59.610Z,100010.16
2022-09-24T11:47:54.265Z,100012.44
2022-09-24T11:50:47.364Z,100010.34
2022-09-24T11:53:46.281Z,100005.06
2022-09-24T11:56:47.284Z,99992.22
2022-09-24T11:59:25.307Z,99988.97
2022-09-24T12:02:01.644Z,99991.94
2022-09-24T12:04:53.185Z,99990.13
2022-09-24T12:07:45.546Z,99978.50
2022-09-24T12:10:29.895Z,99977.53
2022-09-24T12:13:13.859Z,99978.75
2022-09-24T12:15:49.638Z,99977.94
2022-09-24T12:18:21.300Z,99971.59
2022-09-24T12:20:56.269Z,99977.25
2022-09-24T12:23:28.528Z,99978.66
2022-09-24T12:25:57.948Z,99978.06
2022-09-24T12:28:46.785Z,99975.63
2022-09-24T12:32:01.733Z,99971.41
2022-09-24T12:34:52.025Z,99969.19
2022-09-24T12:37:24.155Z,99967.56
2022-09-24T12:40:21.453Z,99956.72
2022-09-24T12:42:56.686Z,99969.47
2022-09-24T12:45:24.776Z,99963.69
2022-09-24T12:48:00.022Z,99961.84
2022-09-24T12:50:29.957Z,99962.69
2022-09-24T12:52:56.770Z,99942.38
2022-09-24T12:55:24.689Z,99965.94
2022-09-24T12:57:58.258Z,99966.91
2022-09-24T13:00:33.912Z,99962.78
2022-09-24T13:03:03.268Z,99960.53
2022-09-24T13:05:34.440Z,99960.50
2022-09-24T13:08:24.685Z,99960.97
2022-09-24T13:10:58.822Z,99951.06
2022-09-24T13:13:33.502Z,99934.53
2022-09-24T13:16:06.351Z,99950.34
2022-09-24T13:18:37.414Z,99941.66
2022-09-24T13:21:07.044Z,99945.09
2022-09-24T13:23:45.627Z,99935.13
2022-09-24T13:26:25.753Z,99905.19
2022-09-24T13:29:01.929Z,99930.19
2022-09-24T13:31:28.419Z,99935.44
2022-09-24T13:34:00.758Z,99912.59
2022-09-24T13:36:45.641Z,99936.63
2022-09-24T13:39:21.573Z,99933.81
2022-09-24T13:42:13.298Z,99929.97
2022-09-24T13:44:43.552Z,99936.59
2022-09-24T13:47:38.336Z,99935.09
2022-09-24T13:50:29.927Z,99940.47
2022-09-24T13:53:16.645Z,99930.56
2022-09-24T13:55:49.067Z,99921.53
2022-09-24T13:58:29.289Z,99913.59
2022-09-24T14:00:58.404Z,99931.16
2022-09-24T14:03:34.624Z,99914.28
2022-09-24T14:06:09.500Z,99937.44
2022-09-24T14:08:36.499Z,99926.59
2022-09-24T14:11:10.132Z,99912.44
2022-09-24T14:13:46.289Z,99932.66
2022-09-24T14:16:23.460Z,99926.44
2022-09-24T14:19:02.162Z,99897.72
2022-09-24T14:22:01.781Z,99927.56
2022-09-24T14:24:42.433Z,99930.25
2022-09-24T14:27:15.651Z,99925.88
2022-09-24T14:29:50.159Z,99901.22
2022-09-24T14:32:24.007Z,99920.41
2022-09-24T14:34:56.128Z,99900.56
2022-09-24T14:37:27.281Z,99928.28
2022-09-24T14:40:07.779Z,99927.13
2022-09-24T14:42:44.002Z,99929.06
2022-09-24T14:45:21.435Z,99919.38
2022-09-24T14:47:48.464Z,99888.56
2022-09-24T14:50:35.418Z,99897.59
2022-09-24T14:53:10.975Z,99919.91
2022-09-24T14:55:40.181Z,99915.41
2022-09-24T14:58:23.328Z,99915.28
2022-09-24T15:00:56.124Z,99892.75
2022-09-24T15:03:34.624Z,99909.16
2022-09-24T15:06:23.468Z,99912.34
2022-09-24T15:09:06.177Z,99901.75
2022-09-24T15:11:36.113Z,99902.34
2022-09-24T15:14:08.698Z,99904.56
2022-09-24T15:16:37.048Z,99904.44
2022-09-24T15:19:06.625Z,99912.22
2022-09-24T15:21:34.907Z,99911.97
2022-09-24T15:24:01.899Z,99903.66
2022-09-24T15:26:30.961Z,99902.66
2022-09-24T15:28:59.294Z,99885.38
2022-09-24T15:31:26.234Z,99899.28
2022-09-24T15:33:53.250Z,99899.31
2022-09-24T15:36:21.221Z,99903.88
2022-09-24T15:38:50.353Z,99900.81
2022-09-24T15:41:21.733Z,99914.13
2022-09-24T15:43:48.222Z,99888.97
2022-09-24T15:46:14.872Z,99903.94
2022-09-24T15:48:41.445Z,99909.56
2022-09-24T15:51:15.039Z,99900.81
2022-09-24T15:53:42.182Z,99906.84
2022-09-24T15:56:08.747Z,99879.06
2022-09-24T15:58:35.623Z,99898.72
2022-09-24T16:01:02.820Z,99896.72
2022-09-24T16:03:32.568Z,99893.25
2022-09-24T16:06:00.252Z,99873.69
2022-09-24T16:08:27.005Z,99903.34
2022-09-24T16:10:53.746Z,99890.28
2022-09-24T16:13:22.425Z,99901.72
2022-09-24T16:15:49.403Z,99882.72
2022-09-24T16:18:17.977Z,99908.13
2022-09-24T16:20:46.211Z,99902.19
2022-09-24T16:23:15.634Z,99909.25
2022-09-24T16:25:53.698Z,99911.06
2022-09-24T16:28:20.217Z,99889.84
2022-09-24T16:30:46.963Z,99901.59
2022-09-24T16:33:13.455Z,99909.38
2022-09-24T16:35:39.950Z,99893.63
2022-09-24T16:38:06.515Z,99918.63
2022-09-24T16:40:33.194Z,99920.75
2022-09-24T16:43:00.005Z,99924.66
2022-09-24T16:45:26.605Z,99919.94
2022-09-24T16:47:53.193Z,99925.28
2022-09-24T16:50:20.239Z,99924.44
2022-09-24T16:52:49.148Z,99914.00
2022-09-24T16:55:16.676Z,99922.63
2022-09-24T16:57:43.137Z,99926.53
2022-09-24T17:00:10.796Z,99930.31
2022-09-24T17:02:37.365Z,99929.47
2022-09-24T17:05:04.436Z,99929.75
2022-09-24T17:07:32.234Z,99904.25
2022-09-24T17:10:15.863Z,99908.88
2022-09-24T17:12:49.144Z,99919.78
2022-09-24T17:15:19.321Z,99925.13
2022-09-24T17:17:50.347Z,99923.53
2022-09-24T17:20:18.286Z,99924.91
2022-09-24T17:22:44.962Z,99924.19
2022-09-24T17:25:11.655Z,99922.72
2022-09-24T17:27:40.040Z,99925.66
2022-09-24T17:30:07.390Z,99916.31
2022-09-24T17:32:33.951Z,99924.47
2022-09-24T17:35:00.531Z,99928.25
2022-09-24T17:37:27.511Z,99924.09
2022-09-24T17:39:54.054Z,99929.00
2022-09-24T17:42:20.657Z,99924.00
2022-09-24T17:44:47.177Z,99935.44
2022-09-24T17:47:14.321Z,99931.19
2022-09-24T17:49:40.787Z,99921.81
2022-09-24T17:52:07.500Z,99931.78
2022-09-24T17:54:34.417Z,99943.47
2022-09-24T17:57:01.965Z,99931.22
2022-09-24T17:59:28.648Z,99939.34
2022-09-24T18:01:55.350Z,99928.63
2022-09-24T18:04:22.120Z,99943.22
2022-09-24T18:06:49.662Z,99944.94
2022-09-24T18:09:17.483Z,99957.47
2022-09-24T18:11:51.521Z,99931.81
2022-09-24T18:14:20.415Z,99955.75
2022-09-24T18:16:46.950Z,99958.44
2022-09-24T18:19:17.072Z,99953.19
2022-09-24T18:21:45.413Z,99966.44
2022-09-24T18:24:12.548Z,99956.84
2022-09-24T18:26:39.979Z,99934.63
2022-09-24T18:29:15.618Z,99956.22
2022-09-24T18:31:42.839Z,99962.66
2022-09-24T18:34:12.985Z,99971.19
2022-09-24T18:36:41.103Z,99968.44
2022-09-24T18:39:12.080Z,99981.81
2022-09-24T18:41:39.598Z,99979.59
2022-09-24T18:44:06.375Z,99995.38
2022-09-24T18:46:33.663Z,99986.94
2022-09-24T18:49:01.070Z,99994.22
2022-09-24T18:51:30.957Z,99991.63
2022-09-24T18:54:06.328Z,99969.06
2022-09-24T18:56:33.318Z,99995.41
2022-09-24T18:58:59.797Z,99991.72
2022-09-24T19:01:27.153Z,99973.69
2022-09-24T19:04:00.074Z,99978.66
2022-09-24T19:06:28.056Z,99996.81
2022-09-24T19:08:54.638Z,100003.22
2022-09-24T19:11:22.887Z,100013.78
2022-09-24T19:13:52.090Z,100012.50
2022-09-24T19:16:20.223Z,100000.38
2022-09-24T19:18:46.871Z,100018.78
2022-09-24T19:21:14.734Z,100029.19
2022-09-24T19:23:47.508Z,100032.66
2022-09-24T19:26:16.810Z,100044.13
2022-09-24T19:28:44.265Z,100050.59
2022-09-24T19:31:23.836Z,100041.38
2022-09-24T19:33:51.961Z,100046.81
2022-09-24T19:36:18.499Z,100044.88
2022-09-24T19:38:45.699Z,100045.31
2022-09-24T19:41:15.229Z,100039.31
2022-09-24T19:43:45.350Z,100044.16
2022-09-24T19:46:14.687Z,100034.13
2022-09-24T19:48:44.336Z,100032.06
2022-09-24T19:51:16.362Z,100039.09
2022-09-24T19:53:43.914Z,100026.25
2022-09-24T19:56:11.371Z,100026.53
2022-09-24T19:58:38.142Z,100016.31
2022-09-24T20:01:06.684Z,99986.41
2022-09-24T20:03:34.775Z,100021.22
2022-09-24T20:06:07.689Z,100014.84
2022-09-24T20:08:34.461Z,100019.06
2022-09-24T20:11:09.696Z,100020.88
2022-09-24T20:13:37.206Z,100020.06
2022-09-24T20:16:04.997Z,100004.63
2022-09-24T20:18:34.445Z,100018.78
2022-09-24T20:21:05.497Z,100012.88
2022-09-24T20:23:31.985Z,100015.34
2022-09-24T20:26:17.585Z,100016.22
2022-09-24T20:28:44.380Z,100024.72
2022-09-24T20:31:12.582Z,100029.41
2022-09-24T20:33:43.129Z,100026.06
2022-09-24T20:36:15.873Z,100029.78
2022-09-24T20:38:45.855Z,100034.31
2022-09-24T20:41:18.091Z,100036.22
2022-09-24T20:43:48.490Z,100027.69
2022-09-24T20:46:27.405Z,100007.09
2022-09-24T20:49:00.399Z,100027.50
2022-09-24T20:51:29.736Z,100046.84
2022-09-24T20:53:58.326Z,100046.84
2022-09-24T20:56:26.760Z,100043.63
2022-09-24T20:58:53.596Z,100045.53
2022-09-24T21:01:24.769Z,100038.59
2022-09-24T21:03:51.735Z,100036.97
2022-09-24T21:06:22.702Z,100039.81
2022-09-24T21:08:49.594Z,100042.88
2022-09-24T21:11:21.604Z,100003.22
2022-09-24T21:13:51.348Z,100049.34
2022-09-24T21:16:23.352Z,100031.41
2022-09-24T21:18:54.227Z,100037.44
2022-09-24T21:21:22.096Z,100038.53
2022-09-24T21:23:51.480Z,100037.56
2022-09-24T21:26:29.101Z,100057.47
2022-09-24T21:28:59.601Z,100011.72
2022-09-24T21:31:31.512Z,100045.34
2022-09-24T21:33:58.421Z,100024.06
2022-09-24T21:36:29.252Z,100048.19
2022-09-24T21:38:57.480Z,100046.41
2022-09-24T21:41:26.546Z,100049.31
2022-09-24T21:43:55.851Z,100009.84
2022-09-24T21:46:23.861Z,100045.53
2022-09-24T21:48:51.288Z,100043.44
2022-09-24T21:51:21.569Z,100058.16
2022-09-24T21:53:53.076Z,100061.50
2022-09-24T21:56:20.881Z,100043.06
2022-09-24T21:58:51.642Z,100046.75
2022-09-24T22:01:29.790Z,100081.69
2022-09-24T22:04:01.167Z,100071.91
2022-09-24T22:06:29.648Z,100076.94
2022-09-24T22:08:58.030Z,100041.19
2022-09-24T22:11:27.303Z,100077.22
2022-09-24T22:13:55.118Z,100068.69
2022-09-24T22:16:22.049Z,100045.91
2022-09-24T22:18:48.585Z,100070.00
2022-09-24T22:21:15.727Z,100063.94
2022-09-24T22:23:42.241Z,100071.03
2022-09-24T22:26:10.065Z,100066.22
2022-09-24T22:28:38.005Z,100064.50
2022-09-24T22:31:09.619Z,100061.84
2022-09-24T22:33:55.286Z,100065.28
2022-09-24T22:36:21.796Z,100059.28
2022-09-24T22:38:51.842Z,100053.59
2022-09-24T22:41:18.630Z,100057.66
2022-09-24T22:43:45.971Z,100060.53
2022-09-24T22:46:13.356Z,100030.72
2022-09-24T22:48:40.414Z,100057.41
2022-09-24T22:51:08.364Z,100055.50
2022-09-24T22:53:36.790Z,100058.75
2022-09-24T22:56:16.689Z,100047.53
2022-09-24T22:58:45.059Z,100058.34
2022-09-24T23:01:22.518Z,100056.63
2022-09-24T23:03:51.419Z,100024.25
2022-09-24T23:06:18.527Z,100043.06
2022-09-24T23:08:45.160Z,100035.19
2022-09-24T23:11:17.100Z,100037.75
2022-09-24T23:13:45.005Z,100039.06
2022-09-24T23:16:39.330Z,100042.31
2022-09-24T23:19:08.440Z,100028.06
2022-09-24T23:21:35.416Z,100028.53
2022-09-24T23:24:05.663Z,100026.44
2022-09-24T23:26:32.267Z,100024.91
2022-09-24T23:29:00.324Z,100019.41
2022-09-24T23:31:30.174Z,100021.13
2022-09-24T23:33:58.940Z,100025.41
2022-09-24T23:36:26.920Z,100029.00
2022-09-24T23:38:53.862Z,100022.00
2022-09-24T23:41:21.800Z,100010.50
2022-09-24T23:43:48.919Z,100026.53
2022-09-24T23:46:16.360Z,100021.41
2022-09-24T23:48:43.020Z,100020.69
2022-09-24T23:51:09.853Z,100023.53
2022-09-24T23:53:37.339Z,99992.69
2022-09-24T23:56:05.794Z,100022.66
2022-09-24T23:58:32.986Z,100024.66
